sensor_id;sensor_type;location;lat;lon;timestamp;temperature;humidity
60473;DHT22;46318;52.716;6.444;2022-08-05T00:01:00;20.10;96.80
60473;DHT22;46318;52.716;6.444;2022-08-05T00:03:26;20.10;96.90
60473;DHT22;46318;52.716;6.444;2022-08-05T00:05:52;20.10;96.80
60473;DHT22;46318;52.716;6.444;2022-08-05T00:08:18;20.10;96.90
60473;DHT22;46318;52.716;6.444;2022-08-05T00:10:44;20.00;97.00
60473;DHT22;46318;52.716;6.444;2022-08-05T00:13:10;20.00;97.10
60473;DHT22;46318;52.716;6.444;2022-08-05T00:15:36;20.00;97.10
60473;DHT22;46318;52.716;6.444;2022-08-05T00:18:01;20.00;97.10
60473;DHT22;46318;52.716;6.444;2022-08-05T00:20:27;20.00;97.40
60473;DHT22;46318;52.716;6.444;2022-08-05T00:22:53;20.00;97.40
60473;DHT22;46318;52.716;6.444;2022-08-05T00:25:18;19.90;97.60
60473;DHT22;46318;52.716;6.444;2022-08-05T00:27:44;19.90;97.60
60473;DHT22;46318;52.716;6.444;2022-08-05T00:30:12;19.90;97.70
60473;DHT22;46318;52.716;6.444;2022-08-05T00:32:37;19.90;97.40
60473;DHT22;46318;52.716;6.444;2022-08-05T00:35:03;19.90;97.50
60473;DHT22;46318;52.716;6.444;2022-08-05T00:37:29;19.90;97.40
60473;DHT22;46318;52.716;6.444;2022-08-05T00:39:55;19.90;97.60
60473;DHT22;46318;52.716;6.444;2022-08-05T00:42:28;19.90;97.90
60473;DHT22;46318;52.716;6.444;2022-08-05T00:44:57;19.90;97.70
60473;DHT22;46318;52.716;6.444;2022-08-05T00:47:23;19.80;97.70
60473;DHT22;46318;52.716;6.444;2022-08-05T00:49:48;19.80;98.00
60473;DHT22;46318;52.716;6.444;2022-08-05T00:52:14;19.80;97.80
60473;DHT22;46318;52.716;6.444;2022-08-05T00:54:40;19.80;98.10
60473;DHT22;46318;52.716;6.444;2022-08-05T00:57:06;19.80;98.10
60473;DHT22;46318;52.716;6.444;2022-08-05T00:59:32;19.80;98.10
60473;DHT22;46318;52.716;6.444;2022-08-05T01:01:57;19.80;98.10
60473;DHT22;46318;52.716;6.444;2022-08-05T01:04:23;19.80;98.60
60473;DHT22;46318;52.716;6.444;2022-08-05T01:06:48;19.80;98.40
60473;DHT22;46318;52.716;6.444;2022-08-05T01:09:14;19.70;98.30
60473;DHT22;46318;52.716;6.444;2022-08-05T01:11:40;19.70;98.20
60473;DHT22;46318;52.716;6.444;2022-08-05T01:16:59;19.70;98.50
60473;DHT22;46318;52.716;6.444;2022-08-05T01:19:50;19.70;98.60
60473;DHT22;46318;52.716;6.444;2022-08-05T01:25:11;19.70;98.80
60473;DHT22;46318;52.716;6.444;2022-08-05T01:30:43;19.60;98.90
60473;DHT22;46318;52.716;6.444;2022-08-05T01:33:12;19.60;98.90
60473;DHT22;46318;52.716;6.444;2022-08-05T01:35:40;19.60;99.00
60473;DHT22;46318;52.716;6.444;2022-08-05T01:38:06;19.60;98.80
60473;DHT22;46318;52.716;6.444;2022-08-05T01:40:32;19.60;98.90
60473;DHT22;46318;52.716;6.444;2022-08-05T01:42:59;19.60;99.10
60473;DHT22;46318;52.716;6.444;2022-08-05T01:45:28;19.60;99.00
60473;DHT22;46318;52.716;6.444;2022-08-05T01:47:54;19.50;99.40
60473;DHT22;46318;52.716;6.444;2022-08-05T01:50:28;19.50;99.50
60473;DHT22;46318;52.716;6.444;2022-08-05T01:52:57;19.50;99.30
60473;DHT22;46318;52.716;6.444;2022-08-05T01:55:24;19.50;99.60
60473;DHT22;46318;52.716;6.444;2022-08-05T01:57:52;19.50;99.70
60473;DHT22;46318;52.716;6.444;2022-08-05T02:00:19;19.40;99.60
60473;DHT22;46318;52.716;6.444;2022-08-05T02:02:52;19.40;99.80
60473;DHT22;46318;52.716;6.444;2022-08-05T02:05:21;19.40;99.80
60473;DHT22;46318;52.716;6.444;2022-08-05T02:07:50;19.40;99.90
60473;DHT22;46318;52.716;6.444;2022-08-05T02:10:16;19.40;99.90
60473;DHT22;46318;52.716;6.444;2022-08-05T02:12:46;19.40;99.90
60473;DHT22;46318;52.716;6.444;2022-08-05T02:15:21;19.40;99.90
60473;DHT22;46318;52.716;6.444;2022-08-05T02:18:00;19.30;99.90
60473;DHT22;46318;52.716;6.444;2022-08-05T02:20:29;19.30;99.90
60473;DHT22;46318;52.716;6.444;2022-08-05T02:23:04;19.30;99.90
60473;DHT22;46318;52.716;6.444;2022-08-05T02:25:34;19.30;99.90
60473;DHT22;46318;52.716;6.444;2022-08-05T02:28:01;19.30;99.90
60473;DHT22;46318;52.716;6.444;2022-08-05T02:30:35;19.30;99.90
60473;DHT22;46318;52.716;6.444;2022-08-05T02:33:04;19.20;99.90
60473;DHT22;46318;52.716;6.444;2022-08-05T02:35:32;19.30;99.90
60473;DHT22;46318;52.716;6.444;2022-08-05T02:37:59;19.30;99.90
60473;DHT22;46318;52.716;6.444;2022-08-05T02:40:25;19.20;99.90
60473;DHT22;46318;52.716;6.444;2022-08-05T02:42:51;19.20;99.90
60473;DHT22;46318;52.716;6.444;2022-08-05T02:45:17;19.20;99.90
60473;DHT22;46318;52.716;6.444;2022-08-05T02:47:44;19.20;99.90
60473;DHT22;46318;52.716;6.444;2022-08-05T02:50:10;19.20;99.90
60473;DHT22;46318;52.716;6.444;2022-08-05T02:52:38;19.10;99.90
60473;DHT22;46318;52.716;6.444;2022-08-05T02:55:04;19.10;99.90
60473;DHT22;46318;52.716;6.444;2022-08-05T02:57:31;19.10;99.90
60473;DHT22;46318;52.716;6.444;2022-08-05T02:59:57;19.10;99.90
60473;DHT22;46318;52.716;6.444;2022-08-05T03:02:25;19.10;99.90
60473;DHT22;46318;52.716;6.444;2022-08-05T03:04:53;19.10;99.90
60473;DHT22;46318;52.716;6.444;2022-08-05T03:07:20;19.10;99.90
60473;DHT22;46318;52.716;6.444;2022-08-05T03:09:46;19.10;99.90
60473;DHT22;46318;52.716;6.444;2022-08-05T03:14:57;19.10;99.90
60473;DHT22;46318;52.716;6.444;2022-08-05T03:17:23;19.10;99.90
60473;DHT22;46318;52.716;6.444;2022-08-05T03:19:48;19.00;99.90
60473;DHT22;46318;52.716;6.444;2022-08-05T03:22:14;19.00;99.90
60473;DHT22;46318;52.716;6.444;2022-08-05T03:24:40;19.00;99.90
60473;DHT22;46318;52.716;6.444;2022-08-05T03:27:07;19.00;99.90
60473;DHT22;46318;52.716;6.444;2022-08-05T03:29:33;19.00;99.90
60473;DHT22;46318;52.716;6.444;2022-08-05T03:31:59;19.00;99.90
60473;DHT22;46318;52.716;6.444;2022-08-05T03:34:25;19.00;99.90
60473;DHT22;46318;52.716;6.444;2022-08-05T03:36:51;18.90;99.90
60473;DHT22;46318;52.716;6.444;2022-08-05T03:39:17;18.90;99.90
60473;DHT22;46318;52.716;6.444;2022-08-05T03:41:43;18.90;99.90
60473;DHT22;46318;52.716;6.444;2022-08-05T03:44:09;18.90;99.90
60473;DHT22;46318;52.716;6.444;2022-08-05T03:46:34;18.90;99.90
60473;DHT22;46318;52.716;6.444;2022-08-05T03:49:00;18.90;99.90
60473;DHT22;46318;52.716;6.444;2022-08-05T03:51:27;18.80;99.90
60473;DHT22;46318;52.716;6.444;2022-08-05T03:53:59;18.80;99.90
60473;DHT22;46318;52.716;6.444;2022-08-05T03:56:41;18.80;99.90
60473;DHT22;46318;52.716;6.444;2022-08-05T03:59:09;18.70;99.90
60473;DHT22;46318;52.716;6.444;2022-08-05T04:01:39;18.80;99.90
60473;DHT22;46318;52.716;6.444;2022-08-05T04:04:07;18.70;99.90
60473;DHT22;46318;52.716;6.444;2022-08-05T04:06:33;18.70;99.90
60473;DHT22;46318;52.716;6.444;2022-08-05T04:08:59;18.70;99.90
60473;DHT22;46318;52.716;6.444;2022-08-05T04:11:26;18.70;99.90
60473;DHT22;46318;52.716;6.444;2022-08-05T04:13:52;18.70;99.90
60473;DHT22;46318;52.716;6.444;2022-08-05T04:16:19;18.70;99.90
60473;DHT22;46318;52.716;6.444;2022-08-05T04:18:45;18.70;99.90
60473;DHT22;46318;52.716;6.444;2022-08-05T04:21:11;18.60;99.90
60473;DHT22;46318;52.716;6.444;2022-08-05T04:23:38;18.60;99.90
60473;DHT22;46318;52.716;6.444;2022-08-05T04:26:04;18.60;99.90
60473;DHT22;46318;52.716;6.444;2022-08-05T04:28:33;18.60;99.90
60473;DHT22;46318;52.716;6.444;2022-08-05T04:30:59;18.60;99.90
60473;DHT22;46318;52.716;6.444;2022-08-05T04:33:25;18.60;99.90
60473;DHT22;46318;52.716;6.444;2022-08-05T04:35:51;18.60;99.90
60473;DHT22;46318;52.716;6.444;2022-08-05T04:38:17;18.60;99.90
60473;DHT22;46318;52.716;6.444;2022-08-05T04:40:42;18.60;99.90
60473;DHT22;46318;52.716;6.444;2022-08-05T04:43:08;18.60;99.90
60473;DHT22;46318;52.716;6.444;2022-08-05T04:45:34;18.60;99.90
60473;DHT22;46318;52.716;6.444;2022-08-05T04:48:06;18.50;99.90
60473;DHT22;46318;52.716;6.444;2022-08-05T04:50:37;18.50;99.90
60473;DHT22;46318;52.716;6.444;2022-08-05T04:53:08;18.50;99.90
60473;DHT22;46318;52.716;6.444;2022-08-05T04:55:37;18.50;99.90
60473;DHT22;46318;52.716;6.444;2022-08-05T04:58:05;18.50;99.90
60473;DHT22;46318;52.716;6.444;2022-08-05T05:00:35;18.50;99.90
60473;DHT22;46318;52.716;6.444;2022-08-05T05:03:02;18.50;99.90
60473;DHT22;46318;52.716;6.444;2022-08-05T05:05:28;18.50;99.90
60473;DHT22;46318;52.716;6.444;2022-08-05T05:08:05;18.50;99.90
60473;DHT22;46318;52.716;6.444;2022-08-05T05:10:33;18.50;99.90
60473;DHT22;46318;52.716;6.444;2022-08-05T05:13:12;18.50;99.90
60473;DHT22;46318;52.716;6.444;2022-08-05T05:15:43;18.50;99.90
60473;DHT22;46318;52.716;6.444;2022-08-05T05:18:13;18.40;99.90
60473;DHT22;46318;52.716;6.444;2022-08-05T05:20:41;18.50;99.90
60473;DHT22;46318;52.716;6.444;2022-08-05T05:23:10;18.40;99.90
60473;DHT22;46318;52.716;6.444;2022-08-05T05:25:39;18.40;99.90
60473;DHT22;46318;52.716;6.444;2022-08-05T05:28:06;18.40;99.90
60473;DHT22;46318;52.716;6.444;2022-08-05T05:30:31;18.40;99.90
60473;DHT22;46318;52.716;6.444;2022-08-05T05:32:58;18.40;99.90
60473;DHT22;46318;52.716;6.444;2022-08-05T05:35:24;18.40;99.90
60473;DHT22;46318;52.716;6.444;2022-08-05T05:37:51;18.40;99.90
60473;DHT22;46318;52.716;6.444;2022-08-05T05:40:19;18.40;99.90
60473;DHT22;46318;52.716;6.444;2022-08-05T05:42:46;18.40;99.90
60473;DHT22;46318;52.716;6.444;2022-08-05T05:45:12;18.40;99.90
60473;DHT22;46318;52.716;6.444;2022-08-05T05:47:39;18.40;99.90
60473;DHT22;46318;52.716;6.444;2022-08-05T05:50:09;18.40;99.90
60473;DHT22;46318;52.716;6.444;2022-08-05T05:52:36;18.40;99.90
60473;DHT22;46318;52.716;6.444;2022-08-05T05:55:02;18.40;99.90
60473;DHT22;46318;52.716;6.444;2022-08-05T05:57:29;18.30;99.90
60473;DHT22;46318;52.716;6.444;2022-08-05T05:59:55;18.30;99.90
60473;DHT22;46318;52.716;6.444;2022-08-05T06:02:21;18.30;99.90
60473;DHT22;46318;52.716;6.444;2022-08-05T06:04:47;18.30;99.90
60473;DHT22;46318;52.716;6.444;2022-08-05T06:07:13;18.30;99.90
60473;DHT22;46318;52.716;6.444;2022-08-05T06:09:39;18.40;99.90
60473;DHT22;46318;52.716;6.444;2022-08-05T06:12:04;18.40;99.90
60473;DHT22;46318;52.716;6.444;2022-08-05T06:14:31;18.30;99.90
60473;DHT22;46318;52.716;6.444;2022-08-05T06:16:58;18.30;99.90
60473;DHT22;46318;52.716;6.444;2022-08-05T06:19:24;18.30;99.90
60473;DHT22;46318;52.716;6.444;2022-08-05T06:21:50;18.30;99.90
60473;DHT22;46318;52.716;6.444;2022-08-05T06:24:16;18.30;99.90
60473;DHT22;46318;52.716;6.444;2022-08-05T06:26:42;18.30;99.90
60473;DHT22;46318;52.716;6.444;2022-08-05T06:29:08;18.30;99.90
60473;DHT22;46318;52.716;6.444;2022-08-05T06:31:33;18.30;99.90
60473;DHT22;46318;52.716;6.444;2022-08-05T06:33:59;18.30;99.90
60473;DHT22;46318;52.716;6.444;2022-08-05T06:36:25;18.30;99.90
60473;DHT22;46318;52.716;6.444;2022-08-05T06:38:50;18.30;99.90
60473;DHT22;46318;52.716;6.444;2022-08-05T06:41:19;18.30;99.90
60473;DHT22;46318;52.716;6.444;2022-08-05T06:43:45;18.40;99.90
60473;DHT22;46318;52.716;6.444;2022-08-05T06:46:11;18.30;99.90
60473;DHT22;46318;52.716;6.444;2022-08-05T06:48:37;18.30;99.90
60473;DHT22;46318;52.716;6.444;2022-08-05T06:51:03;18.40;99.90
60473;DHT22;46318;52.716;6.444;2022-08-05T06:53:28;18.40;99.90
60473;DHT22;46318;52.716;6.444;2022-08-05T06:55:58;18.40;99.90
60473;DHT22;46318;52.716;6.444;2022-08-05T06:58:25;18.40;99.90
60473;DHT22;46318;52.716;6.444;2022-08-05T07:00:51;18.40;99.90
60473;DHT22;46318;52.716;6.444;2022-08-05T07:03:20;18.40;99.90
60473;DHT22;46318;52.716;6.444;2022-08-05T07:05:45;18.50;99.90
60473;DHT22;46318;52.716;6.444;2022-08-05T07:08:12;18.60;99.90
60473;DHT22;46318;52.716;6.444;2022-08-05T07:10:39;18.60;99.90
60473;DHT22;46318;52.716;6.444;2022-08-05T07:13:05;18.60;99.90
60473;DHT22;46318;52.716;6.444;2022-08-05T07:15:49;18.60;99.90
60473;DHT22;46318;52.716;6.444;2022-08-05T07:18:35;18.70;99.90
60473;DHT22;46318;52.716;6.444;2022-08-05T07:21:00;18.70;99.90
60473;DHT22;46318;52.716;6.444;2022-08-05T07:23:27;18.70;99.90
60473;DHT22;46318;52.716;6.444;2022-08-05T07:25:53;18.80;99.90
60473;DHT22;46318;52.716;6.444;2022-08-05T07:28:19;18.90;99.90
60473;DHT22;46318;52.716;6.444;2022-08-05T07:30:44;19.00;99.90
60473;DHT22;46318;52.716;6.444;2022-08-05T07:33:10;19.10;99.90
60473;DHT22;46318;52.716;6.444;2022-08-05T07:35:37;19.20;99.90
60473;DHT22;46318;52.716;6.444;2022-08-05T07:38:03;19.30;99.90
60473;DHT22;46318;52.716;6.444;2022-08-05T07:40:29;19.50;99.90
60473;DHT22;46318;52.716;6.444;2022-08-05T07:42:55;19.60;99.70
60473;DHT22;46318;52.716;6.444;2022-08-05T07:45:21;19.70;99.00
60473;DHT22;46318;52.716;6.444;2022-08-05T07:47:46;19.70;98.60
60473;DHT22;46318;52.716;6.444;2022-08-05T07:50:12;19.70;98.10
60473;DHT22;46318;52.716;6.444;2022-08-05T07:52:38;19.80;98.10
60473;DHT22;46318;52.716;6.444;2022-08-05T07:55:05;19.80;97.60
60473;DHT22;46318;52.716;6.444;2022-08-05T07:57:31;19.90;97.50
60473;DHT22;46318;52.716;6.444;2022-08-05T07:59:57;19.90;97.60
60473;DHT22;46318;52.716;6.444;2022-08-05T08:02:24;20.00;97.40
60473;DHT22;46318;52.716;6.444;2022-08-05T08:04:50;20.00;97.10
60473;DHT22;46318;52.716;6.444;2022-08-05T08:07:16;20.00;95.30
60473;DHT22;46318;52.716;6.444;2022-08-05T08:09:42;20.00;95.20
60473;DHT22;46318;52.716;6.444;2022-08-05T08:12:09;20.10;95.40
60473;DHT22;46318;52.716;6.444;2022-08-05T08:14:35;20.10;95.50
60473;DHT22;46318;52.716;6.444;2022-08-05T08:17:01;20.10;95.40
60473;DHT22;46318;52.716;6.444;2022-08-05T08:19:26;20.20;94.90
60473;DHT22;46318;52.716;6.444;2022-08-05T08:21:52;20.20;94.80
60473;DHT22;46318;52.716;6.444;2022-08-05T08:24:18;20.30;94.70
60473;DHT22;46318;52.716;6.444;2022-08-05T08:26:43;20.30;94.40
60473;DHT22;46318;52.716;6.444;2022-08-05T08:29:10;20.50;94.20
60473;DHT22;46318;52.716;6.444;2022-08-05T08:31:35;20.50;94.60
60473;DHT22;46318;52.716;6.444;2022-08-05T08:34:01;20.50;94.40
60473;DHT22;46318;52.716;6.444;2022-08-05T08:36:27;20.60;94.60
60473;DHT22;46318;52.716;6.444;2022-08-05T08:38:53;20.60;94.80
60473;DHT22;46318;52.716;6.444;2022-08-05T08:41:19;20.70;94.90
60473;DHT22;46318;52.716;6.444;2022-08-05T08:43:47;20.80;94.40
60473;DHT22;46318;52.716;6.444;2022-08-05T08:46:14;20.90;94.50
60473;DHT22;46318;52.716;6.444;2022-08-05T08:48:41;20.90;94.70
60473;DHT22;46318;52.716;6.444;2022-08-05T08:51:10;20.90;93.70
60473;DHT22;46318;52.716;6.444;2022-08-05T08:53:36;20.90;93.70
60473;DHT22;46318;52.716;6.444;2022-08-05T08:56:02;20.90;93.00
60473;DHT22;46318;52.716;6.444;2022-08-05T08:58:31;20.90;92.30
60473;DHT22;46318;52.716;6.444;2022-08-05T09:00:57;21.00;91.90
60473;DHT22;46318;52.716;6.444;2022-08-05T09:03:23;21.10;91.40
60473;DHT22;46318;52.716;6.444;2022-08-05T09:05:49;21.20;90.50
60473;DHT22;46318;52.716;6.444;2022-08-05T09:08:14;21.20;90.00
60473;DHT22;46318;52.716;6.444;2022-08-05T09:10:41;21.30;89.50
60473;DHT22;46318;52.716;6.444;2022-08-05T09:13:10;21.40;88.50
60473;DHT22;46318;52.716;6.444;2022-08-05T09:15:38;21.40;88.30
60473;DHT22;46318;52.716;6.444;2022-08-05T09:18:05;21.50;89.20
60473;DHT22;46318;52.716;6.444;2022-08-05T09:20:32;21.50;85.10
60473;DHT22;46318;52.716;6.444;2022-08-05T09:25:26;21.60;78.90
60473;DHT22;46318;52.716;6.444;2022-08-05T09:27:52;21.70;83.50
60473;DHT22;46318;52.716;6.444;2022-08-05T09:30:18;21.70;79.60
60473;DHT22;46318;52.716;6.444;2022-08-05T09:32:44;21.80;83.20
60473;DHT22;46318;52.716;6.444;2022-08-05T09:35:11;21.80;80.20
60473;DHT22;46318;52.716;6.444;2022-08-05T09:37:50;21.70;79.50
60473;DHT22;46318;52.716;6.444;2022-08-05T09:40:31;21.70;81.40
60473;DHT22;46318;52.716;6.444;2022-08-05T09:42:58;21.80;82.30
60473;DHT22;46318;52.716;6.444;2022-08-05T09:45:38;22.00;79.50
60473;DHT22;46318;52.716;6.444;2022-08-05T09:48:18;22.00;72.90
60473;DHT22;46318;52.716;6.444;2022-08-05T09:50:54;22.10;73.70
60473;DHT22;46318;52.716;6.444;2022-08-05T09:53:30;22.20;78.10
60473;DHT22;46318;52.716;6.444;2022-08-05T09:56:11;22.30;72.20
60473;DHT22;46318;52.716;6.444;2022-08-05T09:58:37;22.30;72.60
60473;DHT22;46318;52.716;6.444;2022-08-05T10:01:04;22.40;71.60
60473;DHT22;46318;52.716;6.444;2022-08-05T10:03:30;22.40;65.00
60473;DHT22;46318;52.716;6.444;2022-08-05T10:06:04;22.50;69.70
60473;DHT22;46318;52.716;6.444;2022-08-05T10:08:31;22.50;67.20
60473;DHT22;46318;52.716;6.444;2022-08-05T10:10:57;22.50;59.60
60473;DHT22;46318;52.716;6.444;2022-08-05T10:13:25;22.60;70.90
60473;DHT22;46318;52.716;6.444;2022-08-05T10:16:02;22.60;63.50
60473;DHT22;46318;52.716;6.444;2022-08-05T10:18:29;22.60;61.20
60473;DHT22;46318;52.716;6.444;2022-08-05T10:21:00;22.70;67.70
60473;DHT22;46318;52.716;6.444;2022-08-05T10:23:33;22.70;53.50
60473;DHT22;46318;52.716;6.444;2022-08-05T10:26:01;22.80;60.90
60473;DHT22;46318;52.716;6.444;2022-08-05T10:28:32;22.80;62.00
60473;DHT22;46318;52.716;6.444;2022-08-05T10:31:10;22.90;70.40
60473;DHT22;46318;52.716;6.444;2022-08-05T10:33:40;23.00;58.20
60473;DHT22;46318;52.716;6.444;2022-08-05T10:36:06;23.00;62.70
60473;DHT22;46318;52.716;6.444;2022-08-05T10:38:32;23.00;60.50
60473;DHT22;46318;52.716;6.444;2022-08-05T10:41:01;23.10;61.70
60473;DHT22;46318;52.716;6.444;2022-08-05T10:43:42;23.20;56.80
60473;DHT22;46318;52.716;6.444;2022-08-05T10:46:44;23.20;52.20
60473;DHT22;46318;52.716;6.444;2022-08-05T10:49:20;23.10;55.00
60473;DHT22;46318;52.716;6.444;2022-08-05T10:51:48;23.10;52.40
60473;DHT22;46318;52.716;6.444;2022-08-05T10:54:15;23.00;49.00
60473;DHT22;46318;52.716;6.444;2022-08-05T10:56:46;23.00;47.80
60473;DHT22;46318;52.716;6.444;2022-08-05T10:59:17;23.00;47.40
60473;DHT22;46318;52.716;6.444;2022-08-05T11:01:43;23.10;45.00
60473;DHT22;46318;52.716;6.444;2022-08-05T11:04:14;23.10;46.00
60473;DHT22;46318;52.716;6.444;2022-08-05T11:09:35;23.20;42.10
60473;DHT22;46318;52.716;6.444;2022-08-05T11:12:01;23.30;41.80
60473;DHT22;46318;52.716;6.444;2022-08-05T11:14:28;23.30;44.60
60473;DHT22;46318;52.716;6.444;2022-08-05T11:19:57;23.40;44.70
60473;DHT22;46318;52.716;6.444;2022-08-05T11:33:25;23.60;43.40
60473;DHT22;46318;52.716;6.444;2022-08-05T11:36:05;23.70;41.90
60473;DHT22;46318;52.716;6.444;2022-08-05T11:38:53;23.60;40.10
60473;DHT22;46318;52.716;6.444;2022-08-05T11:41:20;23.70;44.20
60473;DHT22;46318;52.716;6.444;2022-08-05T11:46:36;23.70;40.20
60473;DHT22;46318;52.716;6.444;2022-08-05T11:49:05;23.70;41.30
60473;DHT22;46318;52.716;6.444;2022-08-05T11:51:32;23.70;39.80
60473;DHT22;46318;52.716;6.444;2022-08-05T11:53:59;23.60;40.50
60473;DHT22;46318;52.716;6.444;2022-08-05T11:56:48;23.60;40.80
60473;DHT22;46318;52.716;6.444;2022-08-05T11:59:15;23.60;41.30
60473;DHT22;46318;52.716;6.444;2022-08-05T12:01:55;23.50;41.40
60473;DHT22;46318;52.716;6.444;2022-08-05T12:04:37;23.40;42.40
60473;DHT22;46318;52.716;6.444;2022-08-05T12:07:05;23.40;42.90
60473;DHT22;46318;52.716;6.444;2022-08-05T12:09:35;23.40;43.70
60473;DHT22;46318;52.716;6.444;2022-08-05T12:12:02;23.50;45.40
60473;DHT22;46318;52.716;6.444;2022-08-05T12:14:39;23.50;45.50
60473;DHT22;46318;52.716;6.444;2022-08-05T12:17:06;23.70;43.90
60473;DHT22;46318;52.716;6.444;2022-08-05T12:19:52;23.70;41.50
60473;DHT22;46318;52.716;6.444;2022-08-05T12:22:20;23.70;42.60
60473;DHT22;46318;52.716;6.444;2022-08-05T12:24:51;23.70;43.80
60473;DHT22;46318;52.716;6.444;2022-08-05T12:27:27;23.60;44.40
60473;DHT22;46318;52.716;6.444;2022-08-05T12:30:06;23.60;45.00
60473;DHT22;46318;52.716;6.444;2022-08-05T12:32:34;23.70;45.10
60473;DHT22;46318;52.716;6.444;2022-08-05T12:35:04;23.70;46.00
60473;DHT22;46318;52.716;6.444;2022-08-05T12:37:30;23.60;46.90
60473;DHT22;46318;52.716;6.444;2022-08-05T12:39:56;23.50;46.40
60473;DHT22;46318;52.716;6.444;2022-08-05T12:42:22;23.40;47.30
60473;DHT22;46318;52.716;6.444;2022-08-05T12:44:48;23.40;48.50
60473;DHT22;46318;52.716;6.444;2022-08-05T12:47:27;23.30;47.80
60473;DHT22;46318;52.716;6.444;2022-08-05T12:49:53;23.30;47.90
60473;DHT22;46318;52.716;6.444;2022-08-05T12:52:19;23.40;47.50
60473;DHT22;46318;52.716;6.444;2022-08-05T12:54:46;23.40;47.10
60473;DHT22;46318;52.716;6.444;2022-08-05T12:57:13;23.30;47.50
60473;DHT22;46318;52.716;6.444;2022-08-05T12:59:53;23.20;47.10
60473;DHT22;46318;52.716;6.444;2022-08-05T13:02:20;23.30;47.70
60473;DHT22;46318;52.716;6.444;2022-08-05T13:04:48;23.40;48.10
60473;DHT22;46318;52.716;6.444;2022-08-05T13:07:16;23.50;47.70
60473;DHT22;46318;52.716;6.444;2022-08-05T13:09:47;23.60;44.80
60473;DHT22;46318;52.716;6.444;2022-08-05T13:12:15;23.70;43.50
60473;DHT22;46318;52.716;6.444;2022-08-05T13:14:43;23.80;41.90
60473;DHT22;46318;52.716;6.444;2022-08-05T13:17:18;23.80;42.70
60473;DHT22;46318;52.716;6.444;2022-08-05T13:22:23;23.90;44.20
60473;DHT22;46318;52.716;6.444;2022-08-05T13:24:50;23.90;43.40
60473;DHT22;46318;52.716;6.444;2022-08-05T13:27:29;24.00;44.30
60473;DHT22;46318;52.716;6.444;2022-08-05T13:29:57;24.00;44.60
60473;DHT22;46318;52.716;6.444;2022-08-05T13:32:27;24.00;45.20
60473;DHT22;46318;52.716;6.444;2022-08-05T13:34:53;24.00;44.30
60473;DHT22;46318;52.716;6.444;2022-08-05T13:37:19;24.00;44.60
60473;DHT22;46318;52.716;6.444;2022-08-05T13:39:52;23.90;44.40
60473;DHT22;46318;52.716;6.444;2022-08-05T13:42:18;23.90;44.40
60473;DHT22;46318;52.716;6.444;2022-08-05T13:44:45;23.70;44.70
60473;DHT22;46318;52.716;6.444;2022-08-05T13:47:12;23.70;45.80
60473;DHT22;46318;52.716;6.444;2022-08-05T13:49:39;23.70;45.70
60473;DHT22;46318;52.716;6.444;2022-08-05T13:52:14;23.60;46.60
60473;DHT22;46318;52.716;6.444;2022-08-05T13:54:47;23.60;47.00
60473;DHT22;46318;52.716;6.444;2022-08-05T13:57:13;23.50;47.60
60473;DHT22;46318;52.716;6.444;2022-08-05T13:59:39;23.40;48.20
60473;DHT22;46318;52.716;6.444;2022-08-05T14:02:07;23.40;47.90
60473;DHT22;46318;52.716;6.444;2022-08-05T14:04:38;23.30;48.00
60473;DHT22;46318;52.716;6.444;2022-08-05T14:07:27;23.30;47.70
60473;DHT22;46318;52.716;6.444;2022-08-05T14:09:56;23.30;46.80
60473;DHT22;46318;52.716;6.444;2022-08-05T14:12:24;23.20;45.50
60473;DHT22;46318;52.716;6.444;2022-08-05T14:14:50;23.20;45.70
60473;DHT22;46318;52.716;6.444;2022-08-05T14:17:16;23.20;46.40
60473;DHT22;46318;52.716;6.444;2022-08-05T14:19:41;23.20;46.40
60473;DHT22;46318;52.716;6.444;2022-08-05T14:22:07;23.30;46.50
60473;DHT22;46318;52.716;6.444;2022-08-05T14:24:33;23.40;47.30
60473;DHT22;46318;52.716;6.444;2022-08-05T14:27:00;23.40;47.40
60473;DHT22;46318;52.716;6.444;2022-08-05T14:29:27;23.30;47.30
60473;DHT22;46318;52.716;6.444;2022-08-05T14:31:52;23.30;49.30
60473;DHT22;46318;52.716;6.444;2022-08-05T14:34:18;23.30;47.60
60473;DHT22;46318;52.716;6.444;2022-08-05T14:36:44;23.20;48.80
60473;DHT22;46318;52.716;6.444;2022-08-05T14:39:10;23.20;47.40
60473;DHT22;46318;52.716;6.444;2022-08-05T14:41:36;23.20;45.50
60473;DHT22;46318;52.716;6.444;2022-08-05T14:44:02;23.10;46.20
60473;DHT22;46318;52.716;6.444;2022-08-05T14:46:28;23.20;47.20
60473;DHT22;46318;52.716;6.444;2022-08-05T14:48:54;23.40;48.30
60473;DHT22;46318;52.716;6.444;2022-08-05T14:51:20;23.50;48.50
60473;DHT22;46318;52.716;6.444;2022-08-05T14:53:46;23.60;48.80
60473;DHT22;46318;52.716;6.444;2022-08-05T14:56:14;23.60;49.40
60473;DHT22;46318;52.716;6.444;2022-08-05T14:58:40;23.60;48.40
60473;DHT22;46318;52.716;6.444;2022-08-05T15:01:05;23.60;48.30
60473;DHT22;46318;52.716;6.444;2022-08-05T15:03:31;23.60;48.20
60473;DHT22;46318;52.716;6.444;2022-08-05T15:05:57;23.50;47.40
60473;DHT22;46318;52.716;6.444;2022-08-05T15:08:23;23.50;47.90
60473;DHT22;46318;52.716;6.444;2022-08-05T15:10:50;23.40;46.40
60473;DHT22;46318;52.716;6.444;2022-08-05T15:13:16;23.30;46.50
60473;DHT22;46318;52.716;6.444;2022-08-05T15:15:42;23.20;46.70
60473;DHT22;46318;52.716;6.444;2022-08-05T15:18:08;23.20;46.80
60473;DHT22;46318;52.716;6.444;2022-08-05T15:20:33;23.20;46.30
60473;DHT22;46318;52.716;6.444;2022-08-05T15:23:03;23.30;46.80
60473;DHT22;46318;52.716;6.444;2022-08-05T15:25:34;23.40;46.70
60473;DHT22;46318;52.716;6.444;2022-08-05T15:28:02;23.40;46.60
60473;DHT22;46318;52.716;6.444;2022-08-05T15:30:28;23.30;46.90
60473;DHT22;46318;52.716;6.444;2022-08-05T15:32:56;23.20;47.90
60473;DHT22;46318;52.716;6.444;2022-08-05T15:35:22;23.20;46.80
60473;DHT22;46318;52.716;6.444;2022-08-05T15:37:48;23.20;46.50
60473;DHT22;46318;52.716;6.444;2022-08-05T15:40:14;23.20;46.80
60473;DHT22;46318;52.716;6.444;2022-08-05T15:42:40;23.30;48.50
60473;DHT22;46318;52.716;6.444;2022-08-05T15:45:05;23.30;46.40
60473;DHT22;46318;52.716;6.444;2022-08-05T15:47:32;23.30;45.00
60473;DHT22;46318;52.716;6.444;2022-08-05T15:49:57;23.40;45.00
60473;DHT22;46318;52.716;6.444;2022-08-05T15:52:23;23.30;44.40
60473;DHT22;46318;52.716;6.444;2022-08-05T15:54:50;23.30;44.00
60473;DHT22;46318;52.716;6.444;2022-08-05T15:57:17;23.20;43.90
60473;DHT22;46318;52.716;6.444;2022-08-05T15:59:44;23.20;44.20
60473;DHT22;46318;52.716;6.444;2022-08-05T16:02:09;23.30;44.60
60473;DHT22;46318;52.716;6.444;2022-08-05T16:04:35;23.30;45.30
60473;DHT22;46318;52.716;6.444;2022-08-05T16:08:44;23.20;45.10
60473;DHT22;46318;52.716;6.444;2022-08-05T16:11:10;23.20;47.60
60473;DHT22;46318;52.716;6.444;2022-08-05T16:13:36;23.20;46.90